Time;durP1;ratioP1;P1;durP2;ratioP2;P2;SDS_P1;SDS_P2;PMS_P1;PMS_P2;Temp;Humidity;BMP_temperature;BMP_pressure;BME280_temperature;BME280_humidity;BME280_pressure;Samples;Min_cycle;Max_cycle;Signal;HPM_P1;HPM_P2
2022/05/07 00:01:59;;;;;;;;;;;12.90;99.90;;;;;;5048355;28;20488;-76
2022/05/07 00:04:28;;;;;;;;;;;12.90;99.90;;;;;;5050710;28;19924;-76
2022/05/07 00:06:55;;;;;;;;;;;13.00;99.90;;;;;;5050053;28;19931;-77
2022/05/07 00:09:23;;;;;;;;;;;12.90;99.90;;;;;;5064671;28;20020;-74
2022/05/07 00:11:50;;;;;;;;;;;13.00;99.90;;;;;;5060151;28;20368;-75
2022/05/07 00:14:17;;;;;;;;;;;12.90;99.90;;;;;;5051207;28;19928;-76
2022/05/07 00:19:29;;;;;;;;;;;12.90;99.90;;;;;;5060244;28;19931;-76
2022/05/07 00:21:55;;;;;;;;;;;12.80;99.90;;;;;;5063054;28;19925;-74
2022/05/07 00:24:22;;;;;;;;;;;12.80;99.90;;;;;;5057269;28;19925;-75
2022/05/07 00:26:49;;;;;;;;;;;12.80;99.90;;;;;;5045690;28;20007;-75
2022/05/07 00:29:15;;;;;;;;;;;12.80;99.90;;;;;;5050167;28;19929;-75
2022/05/07 00:31:42;;;;;;;;;;;12.80;99.90;;;;;;5056310;28;19936;-74
2022/05/07 00:34:09;;;;;;;;;;;12.80;99.90;;;;;;5063625;28;19924;-75
2022/05/07 00:36:37;;;;;;;;;;;12.80;99.90;;;;;;5058715;28;19928;-77
2022/05/07 00:39:03;;;;;;;;;;;12.80;99.90;;;;;;5049180;28;20394;-78
2022/05/07 00:41:30;;;;;;;;;;;12.80;99.90;;;;;;5052259;28;19925;-75
2022/05/07 00:43:57;;;;;;;;;;;12.90;99.90;;;;;;5052826;28;20023;-79
2022/05/07 00:46:25;;;;;;;;;;;12.90;99.90;;;;;;5052889;28;19935;-76
2022/05/07 00:48:51;;;;;;;;;;;13.00;99.90;;;;;;5051944;28;20019;-76
2022/05/07 00:51:37;;;;;;;;;;;13.00;99.90;;;;;;5052390;28;19925;-77
2022/05/07 00:54:06;;;;;;;;;;;13.00;99.90;;;;;;5051885;28;19924;-78
2022/05/07 00:56:33;;;;;;;;;;;13.00;99.90;;;;;;5051198;28;20016;-80
2022/05/07 00:59:00;;;;;;;;;;;13.00;99.90;;;;;;5057900;28;22108;-76
2022/05/07 01:01:27;;;;;;;;;;;13.00;99.90;;;;;;5053896;28;19939;-76
2022/05/07 01:03:54;;;;;;;;;;;13.00;99.90;;;;;;5053577;28;19964;-77
2022/05/07 01:06:21;;;;;;;;;;;13.00;99.90;;;;;;5049384;28;20352;-76
2022/05/07 01:08:48;;;;;;;;;;;12.90;99.90;;;;;;5051427;28;19936;-76
2022/05/07 01:11:17;;;;;;;;;;;12.90;99.90;;;;;;5056188;28;19994;-76
2022/05/07 01:13:44;;;;;;;;;;;12.90;99.90;;;;;;5054435;28;19928;-76
2022/05/07 01:16:12;;;;;;;;;;;13.00;99.90;;;;;;5052253;28;19925;-77
2022/05/07 01:18:39;;;;;;;;;;;12.90;99.90;;;;;;5051907;28;19924;-76
2022/05/07 01:21:10;;;;;;;;;;;13.00;99.90;;;;;;5050557;28;19928;-76
2022/05/07 01:23:37;;;;;;;;;;;13.00;99.90;;;;;;5050842;28;19936;-76
2022/05/07 01:26:04;;;;;;;;;;;13.00;99.90;;;;;;5047360;28;19996;-77
2022/05/07 01:28:31;;;;;;;;;;;13.00;99.90;;;;;;5048740;28;19925;-76
2022/05/07 01:30:58;;;;;;;;;;;13.00;99.90;;;;;;5052598;28;20292;-77
2022/05/07 01:33:24;;;;;;;;;;;13.00;99.90;;;;;;5050370;28;20403;-77
2022/05/07 01:35:51;;;;;;;;;;;13.10;99.90;;;;;;5048640;28;20304;-76
2022/05/07 01:38:19;;;;;;;;;;;13.10;99.90;;;;;;5048017;28;20375;-78
2022/05/07 01:40:46;;;;;;;;;;;13.10;99.90;;;;;;5050404;28;19929;-76
2022/05/07 01:43:13;;;;;;;;;;;13.10;99.90;;;;;;5055358;28;19944;-75
2022/05/07 01:45:39;;;;;;;;;;;13.10;99.80;;;;;;5052272;28;19924;-76
2022/05/07 01:48:14;;;;;;;;;;;13.20;99.70;;;;;;5046982;28;19932;-76
2022/05/07 01:50:41;;;;;;;;;;;13.20;99.70;;;;;;5052025;28;19975;-78
2022/05/07 01:53:08;;;;;;;;;;;13.20;99.80;;;;;;5051487;28;19935;-76
2022/05/07 01:55:37;;;;;;;;;;;13.20;99.90;;;;;;5051757;28;19933;-76
2022/05/07 01:58:04;;;;;;;;;;;13.20;99.90;;;;;;5051420;28;19931;-76
2022/05/07 02:00:31;;;;;;;;;;;13.20;99.90;;;;;;5048585;28;19925;-76
2022/05/07 02:02:58;;;;;;;;;;;13.10;99.90;;;;;;5051128;28;19925;-75
2022/05/07 02:05:25;;;;;;;;;;;13.10;99.90;;;;;;5051731;28;20430;-78
2022/05/07 02:07:51;;;;;;;;;;;13.10;99.90;;;;;;5047726;28;19929;-77
2022/05/07 02:10:18;;;;;;;;;;;13.10;99.90;;;;;;5050494;28;19925;-75
2022/05/07 02:12:46;;;;;;;;;;;13.10;99.90;;;;;;5050577;28;20350;-77
2022/05/07 02:15:13;;;;;;;;;;;13.00;99.90;;;;;;5050922;28;19925;-78
2022/05/07 02:17:40;;;;;;;;;;;13.00;99.90;;;;;;5048946;28;19935;-76
2022/05/07 02:20:07;;;;;;;;;;;13.00;99.90;;;;;;5051891;28;20130;-77
2022/05/07 02:22:34;;;;;;;;;;;13.00;99.90;;;;;;5054774;28;19924;-78
2022/05/07 02:25:01;;;;;;;;;;;12.90;99.90;;;;;;5059022;28;20379;-77
2022/05/07 02:27:27;;;;;;;;;;;12.90;99.90;;;;;;5048199;28;20380;-77
2022/05/07 02:29:55;;;;;;;;;;;12.90;99.90;;;;;;5048890;28;20380;-76
2022/05/07 02:32:22;;;;;;;;;;;12.90;99.90;;;;;;5054755;28;19959;-77
2022/05/07 02:34:49;;;;;;;;;;;12.90;99.90;;;;;;5052451;28;20012;-78
2022/05/07 02:37:15;;;;;;;;;;;12.90;99.90;;;;;;5049446;28;20367;-78
2022/05/07 02:39:42;;;;;;;;;;;12.90;99.90;;;;;;5050978;28;19931;-78
2022/05/07 02:44:53;;;;;;;;;;;12.80;99.90;;;;;;5055102;28;20426;-77
2022/05/07 02:47:21;;;;;;;;;;;12.70;99.90;;;;;;5048398;28;19958;-78
2022/05/07 02:49:48;;;;;;;;;;;12.70;99.90;;;;;;5050968;28;20302;-79
2022/05/07 02:52:14;;;;;;;;;;;12.70;99.90;;;;;;5046873;28;20355;-78
2022/05/07 02:54:41;;;;;;;;;;;12.70;99.90;;;;;;5050847;28;20441;-75
2022/05/07 02:57:08;;;;;;;;;;;12.60;99.80;;;;;;5046595;28;20355;-77
2022/05/07 02:59:35;;;;;;;;;;;12.60;99.80;;;;;;5051065;28;20015;-77
2022/05/07 03:02:02;;;;;;;;;;;12.60;99.70;;;;;;5048197;28;19944;-77
2022/05/07 03:04:30;;;;;;;;;;;12.60;99.70;;;;;;5048138;28;19968;-76
2022/05/07 03:06:56;;;;;;;;;;;12.60;99.70;;;;;;5051208;28;19933;-77
2022/05/07 03:09:23;;;;;;;;;;;12.60;99.60;;;;;;5051144;28;20019;-78
2022/05/07 03:11:50;;;;;;;;;;;12.60;99.50;;;;;;5048353;28;19925;-76
2022/05/07 03:14:17;;;;;;;;;;;12.60;99.60;;;;;;5054235;28;20030;-77
2022/05/07 03:16:44;;;;;;;;;;;12.60;99.50;;;;;;5031830;28;20491;-78
2022/05/07 03:19:11;;;;;;;;;;;12.60;99.50;;;;;;5049547;28;20012;-77
2022/05/07 03:21:39;;;;;;;;;;;12.60;99.60;;;;;;5051115;28;19929;-79
2022/05/07 03:24:06;;;;;;;;;;;12.60;99.60;;;;;;5049720;28;19933;-78
2022/05/07 03:26:33;;;;;;;;;;;12.60;99.50;;;;;;5049455;28;19925;-76
2022/05/07 03:29:00;;;;;;;;;;;12.50;99.70;;;;;;5058394;28;19986;-77
2022/05/07 03:31:27;;;;;;;;;;;12.60;99.80;;;;;;5050466;28;20014;-77
2022/05/07 03:33:53;;;;;;;;;;;12.50;99.80;;;;;;5052070;28;19931;-76
2022/05/07 03:36:20;;;;;;;;;;;12.50;99.70;;;;;;5051409;28;19925;-77
2022/05/07 03:38:48;;;;;;;;;;;12.40;99.60;;;;;;5046361;28;19966;-77
2022/05/07 03:41:15;;;;;;;;;;;12.40;99.70;;;;;;5049802;28;19931;-78
2022/05/07 03:43:42;;;;;;;;;;;12.40;99.90;;;;;;5050047;28;19932;-76
2022/05/07 03:46:09;;;;;;;;;;;12.40;99.90;;;;;;5051147;28;19931;-76
2022/05/07 03:48:36;;;;;;;;;;;12.30;99.90;;;;;;5045601;28;19932;-77
2022/05/07 03:51:03;;;;;;;;;;;12.30;99.90;;;;;;5051995;28;19932;-77
2022/05/07 03:53:34;;;;;;;;;;;12.30;99.90;;;;;;5054913;28;19925;-80
2022/05/07 03:56:03;;;;;;;;;;;12.20;99.90;;;;;;5049499;28;20431;-77
2022/05/07 03:58:30;;;;;;;;;;;12.10;99.90;;;;;;5041405;28;19925;-77
2022/05/07 04:00:57;;;;;;;;;;;12.10;99.90;;;;;;5049534;28;19925;-76
2022/05/07 04:03:28;;;;;;;;;;;12.10;99.90;;;;;;5054171;28;19931;-79
2022/05/07 04:05:55;;;;;;;;;;;12.00;99.90;;;;;;5050233;28;20023;-77
2022/05/07 04:08:22;;;;;;;;;;;12.00;99.90;;;;;;5054655;28;19924;-78
2022/05/07 04:10:48;;;;;;;;;;;12.00;99.90;;;;;;5047626;28;19929;-77
2022/05/07 04:13:16;;;;;;;;;;;12.00;99.90;;;;;;5044893;28;19929;-76
2022/05/07 04:15:44;;;;;;;;;;;12.00;99.90;;;;;;5054545;28;19928;-76
2022/05/07 04:18:11;;;;;;;;;;;12.00;99.90;;;;;;5061372;28;20023;-77
2022/05/07 04:20:38;;;;;;;;;;;12.00;99.90;;;;;;5050749;28;19925;-78
2022/05/07 04:23:05;;;;;;;;;;;12.00;99.90;;;;;;5048374;28;20387;-76
2022/05/07 04:25:31;;;;;;;;;;;12.00;99.90;;;;;;5042473;28;19940;-77
2022/05/07 04:27:58;;;;;;;;;;;12.00;99.90;;;;;;5046608;28;19936;-76
2022/05/07 04:30:26;;;;;;;;;;;12.00;99.90;;;;;;5046412;28;19931;-76
2022/05/07 04:32:53;;;;;;;;;;;12.00;99.90;;;;;;5045083;28;19996;-76
2022/05/07 04:35:20;;;;;;;;;;;12.00;99.90;;;;;;5052163;28;19925;-76
2022/05/07 04:37:46;;;;;;;;;;;12.00;99.90;;;;;;5049193;28;19932;-77
2022/05/07 04:40:13;;;;;;;;;;;12.00;99.90;;;;;;5052354;28;20455;-76
2022/05/07 04:42:41;;;;;;;;;;;12.00;99.90;;;;;;5054848;28;19924;-78
2022/05/07 04:45:08;;;;;;;;;;;12.10;99.90;;;;;;5056246;28;20380;-78
2022/05/07 04:47:36;;;;;;;;;;;12.10;99.90;;;;;;5057277;28;19931;-78
2022/05/07 04:50:03;;;;;;;;;;;12.10;99.90;;;;;;5062395;28;20028;-76
2022/05/07 04:52:30;;;;;;;;;;;12.10;99.90;;;;;;5049758;28;19947;-77
2022/05/07 04:54:57;;;;;;;;;;;12.10;99.90;;;;;;5051395;28;19925;-78
2022/05/07 04:57:23;;;;;;;;;;;12.20;99.90;;;;;;5049186;28;19924;-78
2022/05/07 04:59:50;;;;;;;;;;;12.20;99.90;;;;;;5052506;28;20291;-78
2022/05/07 05:02:17;;;;;;;;;;;12.30;99.90;;;;;;5052259;28;19925;-79
2022/05/07 05:04:45;;;;;;;;;;;12.30;99.90;;;;;;5050099;28;20044;-82
2022/05/07 05:07:12;;;;;;;;;;;12.30;99.90;;;;;;5050178;28;19930;-76
2022/05/07 05:09:38;;;;;;;;;;;12.30;99.90;;;;;;5046133;28;19975;-78
2022/05/07 05:12:05;;;;;;;;;;;12.40;99.90;;;;;;5051029;28;19925;-76
2022/05/07 05:17:16;;;;;;;;;;;12.50;99.90;;;;;;5059217;28;19931;-80
2022/05/07 05:19:44;;;;;;;;;;;12.40;99.90;;;;;;5063307;28;19972;-79
2022/05/07 05:22:11;;;;;;;;;;;12.40;99.90;;;;;;5051258;28;20376;-79
2022/05/07 05:24:37;;;;;;;;;;;12.40;99.90;;;;;;5057621;28;19932;-79
2022/05/07 05:27:05;;;;;;;;;;;12.50;99.90;;;;;;5053554;28;19933;-80
2022/05/07 05:29:32;;;;;;;;;;;12.50;99.90;;;;;;5065536;28;20027;-79
2022/05/07 05:31:59;;;;;;;;;;;12.50;99.90;;;;;;5058292;28;19932;-79
2022/05/07 05:34:25;;;;;;;;;;;12.50;99.90;;;;;;5068942;28;19931;-79
2022/05/07 05:36:53;;;;;;;;;;;12.50;99.90;;;;;;5065079;28;19924;-78
2022/05/07 05:39:20;;;;;;;;;;;12.50;99.90;;;;;;5055102;28;19925;-75
2022/05/07 05:41:47;;;;;;;;;;;12.60;99.90;;;;;;5051476;28;19951;-79
2022/05/07 05:44:13;;;;;;;;;;;12.70;99.90;;;;;;5052323;28;20012;-78
2022/05/07 05:46:40;;;;;;;;;;;12.70;99.90;;;;;;5059936;28;20011;-79
2022/05/07 05:49:07;;;;;;;;;;;12.70;99.90;;;;;;5053688;28;19924;-76
2022/05/07 05:51:33;;;;;;;;;;;12.80;99.90;;;;;;5052886;28;19943;-77
2022/05/07 05:54:01;;;;;;;;;;;12.80;99.90;;;;;;5052672;28;19935;-78
2022/05/07 05:56:28;;;;;;;;;;;12.80;99.90;;;;;;5051892;28;19931;-77
2022/05/07 05:58:55;;;;;;;;;;;12.90;99.90;;;;;;5049798;28;20277;-77
2022/05/07 06:01:22;;;;;;;;;;;13.00;99.90;;;;;;5048420;28;20015;-77
2022/05/07 06:03:49;;;;;;;;;;;13.10;99.90;;;;;;5059572;28;19941;-77
2022/05/07 06:06:15;;;;;;;;;;;13.10;99.90;;;;;;5055800;28;19924;-76
2022/05/07 06:08:43;;;;;;;;;;;13.20;99.90;;;;;;5059205;28;19925;-75
2022/05/07 06:11:11;;;;;;;;;;;13.20;99.90;;;;;;5045857;28;19928;-75
2022/05/07 06:13:38;;;;;;;;;;;13.20;99.90;;;;;;5037817;28;20351;-74
2022/05/07 06:16:05;;;;;;;;;;;13.30;99.90;;;;;;5045865;28;20023;-75
2022/05/07 06:18:31;;;;;;;;;;;13.40;99.90;;;;;;5052523;28;20315;-78
2022/05/07 06:21:01;;;;;;;;;;;13.50;99.90;;;;;;5049152;28;20370;-79
2022/05/07 06:23:28;;;;;;;;;;;13.60;99.90;;;;;;5055273;28;19929;-82
2022/05/07 06:28:41;;;;;;;;;;;13.80;99.90;;;;;;5055790;28;19931;-79
2022/05/07 06:31:10;;;;;;;;;;;13.90;99.90;;;;;;5048238;28;19924;-78
2022/05/07 06:33:38;;;;;;;;;;;13.90;99.90;;;;;;5047833;28;19924;-78
2022/05/07 06:36:05;;;;;;;;;;;14.00;99.90;;;;;;5048673;28;20273;-82
2022/05/07 06:38:32;;;;;;;;;;;14.10;99.90;;;;;;5053845;28;19947;-80
2022/05/07 06:41:02;;;;;;;;;;;14.10;99.90;;;;;;5050307;28;19932;-82
2022/05/07 06:43:28;;;;;;;;;;;14.20;99.90;;;;;;5048975;28;19925;-81
2022/05/07 06:45:57;;;;;;;;;;;14.40;99.90;;;;;;5046600;28;19939;-82
2022/05/07 06:48:24;;;;;;;;;;;14.50;99.90;;;;;;5044043;28;20308;-83
2022/05/07 06:50:50;;;;;;;;;;;14.60;99.90;;;;;;5045553;28;19933;-83
2022/05/07 06:53:17;;;;;;;;;;;14.80;99.90;;;;;;5046246;28;19943;-83
2022/05/07 06:58:28;;;;;;;;;;;15.10;99.90;;;;;;5043551;28;19929;-82
2022/05/07 07:00:55;;;;;;;;;;;15.00;99.90;;;;;;5044350;28;19933;-81
2022/05/07 07:03:23;;;;;;;;;;;14.90;99.90;;;;;;5045682;28;20043;-84
2022/05/07 07:05:50;;;;;;;;;;;14.90;99.90;;;;;;5043283;28;19929;-82
2022/05/07 07:08:17;;;;;;;;;;;15.50;99.90;;;;;;5041295;28;19929;-80
2022/05/07 07:10:45;;;;;;;;;;;16.30;99.90;;;;;;5048140;28;19947;-76
2022/05/07 07:13:12;;;;;;;;;;;16.70;98.10;;;;;;5050787;28;19925;-77
2022/05/07 07:15:40;;;;;;;;;;;17.30;96.50;;;;;;5051480;28;20265;-76
2022/05/07 07:18:09;;;;;;;;;;;17.00;94.70;;;;;;5053179;28;20331;-78
2022/05/07 07:20:40;;;;;;;;;;;16.50;95.10;;;;;;5040984;28;19925;-77
2022/05/07 07:23:07;;;;;;;;;;;16.20;96.30;;;;;;5060670;28;19973;-78
2022/05/07 07:25:33;;;;;;;;;;;16.30;96.70;;;;;;5071051;28;20296;-76
2022/05/07 07:28:00;;;;;;;;;;;16.50;96.20;;;;;;5059483;28;20360;-78
2022/05/07 07:30:27;;;;;;;;;;;17.00;95.90;;;;;;5064562;28;19943;-77
2022/05/07 07:32:53;;;;;;;;;;;17.30;94.30;;;;;;5059944;28;19931;-80
2022/05/07 07:35:20;;;;;;;;;;;17.30;94.60;;;;;;5068406;28;20019;-78
2022/05/07 07:37:49;;;;;;;;;;;17.70;93.80;;;;;;5055554;28;19970;-79
2022/05/07 07:40:16;;;;;;;;;;;18.10;92.30;;;;;;5041857;28;20325;-77
2022/05/07 07:42:42;;;;;;;;;;;18.20;91.40;;;;;;5057079;28;20047;-79
2022/05/07 07:48:02;;;;;;;;;;;18.70;90.00;;;;;;5059477;28;19969;-77
2022/05/07 07:50:31;;;;;;;;;;;19.00;85.90;;;;;;5064687;28;19987;-79
2022/05/07 07:52:59;;;;;;;;;;;19.20;82.80;;;;;;5056158;28;19924;-77
2022/05/07 07:55:26;;;;;;;;;;;19.10;81.30;;;;;;5046327;28;19924;-77
2022/05/07 07:57:54;;;;;;;;;;;19.30;80.10;;;;;;5055980;28;19932;-78
2022/05/07 08:00:21;;;;;;;;;;;19.10;79.40;;;;;;5051374;28;20295;-77
2022/05/07 08:02:48;;;;;;;;;;;19.30;80.10;;;;;;5053736;28;19936;-77
2022/05/07 08:05:14;;;;;;;;;;;19.50;77.90;;;;;;5048455;28;19925;-71
2022/05/07 08:13:11;;;;;;;;;;;20.10;72.40;;;;;;5048975;28;20406;-77
2022/05/07 08:15:38;;;;;;;;;;;21.20;71.00;;;;;;5050280;28;19947;-78
2022/05/07 08:18:05;;;;;;;;;;;23.40;58.60;;;;;;5054664;28;19932;-77
2022/05/07 08:20:32;;;;;;;;;;;25.40;47.20;;;;;;5050963;28;19924;-77
2022/05/07 08:22:59;;;;;;;;;;;25.80;41.00;;;;;;5049112;28;20454;-76
2022/05/07 08:25:27;;;;;;;;;;;22.70;44.10;;;;;;5051219;28;19996;-78
2022/05/07 08:27:54;;;;;;;;;;;22.10;45.90;;;;;;5049402;28;19925;-74
2022/05/07 08:30:20;;;;;;;;;;;21.90;47.40;;;;;;5049389;28;20398;-74
2022/05/07 08:32:47;;;;;;;;;;;20.90;48.80;;;;;;5052908;28;19924;-74
2022/05/07 08:35:14;;;;;;;;;;;19.60;55.20;;;;;;5049013;28;20458;-74
2022/05/07 08:37:40;;;;;;;;;;;19.20;56.10;;;;;;5046741;28;20395;-74
2022/05/07 08:40:08;;;;;;;;;;;20.20;55.10;;;;;;5051601;28;19963;-79
2022/05/07 08:42:36;;;;;;;;;;;19.70;56.10;;;;;;5047742;28;19931;-79
2022/05/07 08:45:03;;;;;;;;;;;18.90;56.80;;;;;;5045228;28;19929;-78
2022/05/07 08:47:30;;;;;;;;;;;18.80;59.10;;;;;;5051233;28;19967;-81
2022/05/07 08:49:57;;;;;;;;;;;18.50;59.60;;;;;;5053571;28;20297;-77
2022/05/07 08:52:24;;;;;;;;;;;18.00;63.20;;;;;;5053427;28;19925;-75
2022/05/07 08:54:52;;;;;;;;;;;18.20;64.10;;;;;;5045541;28;19929;-75
2022/05/07 08:57:18;;;;;;;;;;;18.30;65.50;;;;;;5051748;28;19986;-75
2022/05/07 08:59:51;;;;;;;;;;;18.30;62.60;;;;;;5048391;28;19933;-75
2022/05/07 09:02:18;;;;;;;;;;;18.30;65.20;;;;;;5053373;28;19928;-76
2022/05/07 09:04:53;;;;;;;;;;;18.70;65.00;;;;;;5050992;28;20334;-74
2022/05/07 09:07:20;;;;;;;;;;;18.60;63.70;;;;;;5058039;28;20441;-75
2022/05/07 09:09:47;;;;;;;;;;;17.90;67.00;;;;;;5051017;28;20047;-75
2022/05/07 09:12:22;;;;;;;;;;;17.80;69.20;;;;;;5059162;28;20011;-75
2022/05/07 09:14:50;;;;;;;;;;;18.10;69.00;;;;;;5050246;28;19965;-75
2022/05/07 09:17:18;;;;;;;;;;;18.30;70.50;;;;;;5052698;28;20356;-75
2022/05/07 09:19:45;;;;;;;;;;;18.70;67.70;;;;;;5053051;28;20027;-76
2022/05/07 09:22:12;;;;;;;;;;;19.40;64.60;;;;;;5049115;28;20019;-77
2022/05/07 09:24:39;;;;;;;;;;;19.40;62.80;;;;;;5052456;28;20277;-76
2022/05/07 09:27:06;;;;;;;;;;;18.80;65.50;;;;;;5047950;28;20060;-77
2022/05/07 09:29:33;;;;;;;;;;;19.50;65.20;;;;;;5057878;28;19931;-80
2022/05/07 09:32:09;;;;;;;;;;;20.20;62.00;;;;;;5051982;28;20540;-79
2022/05/07 09:37:34;;;;;;;;;;;21.20;60.50;;;;;;5021260;28;19932;-78
2022/05/07 09:40:03;;;;;;;;;;;22.20;58.60;;;;;;5055884;28;19932;-78
2022/05/07 09:42:31;;;;;;;;;;;23.10;54.20;;;;;;5064056;28;19931;-78
2022/05/07 09:44:58;;;;;;;;;;;23.00;52.70;;;;;;5051933;28;19932;-75
2022/05/07 09:47:27;;;;;;;;;;;23.30;52.00;;;;;;5047346;28;20502;-77
2022/05/07 09:57:30;;;;;;;;;;;24.30;46.20;;;;;;5050843;28;20038;-76
2022/05/07 09:58:15;;;;;;;;;;;24.50;42.30;;;;;;5037224;28;20166;-76
2022/05/07 10:00:49;;;;;;;;;;;24.90;42.20;;;;;;5050272;28;20393;-78
2022/05/07 10:03:20;;;;;;;;;;;25.50;40.10;;;;;;5047902;28;19925;-78
2022/05/07 10:05:53;;;;;;;;;;;24.70;40.00;;;;;;5046511;28;20191;-77
2022/05/07 10:08:28;;;;;;;;;;;23.20;44.00;;;;;;5051820;28;20003;-79
2022/05/07 10:10:56;;;;;;;;;;;22.40;45.80;;;;;;5047931;28;19924;-78
2022/05/07 10:13:23;;;;;;;;;;;21.90;46.90;;;;;;5050727;28;19924;-77
2022/05/07 10:15:59;;;;;;;;;;;21.60;47.80;;;;;;5053263;28;19929;-77
2022/05/07 10:18:34;;;;;;;;;;;21.70;48.80;;;;;;5045189;28;19924;-79
2022/05/07 10:21:10;;;;;;;;;;;21.80;49.00;;;;;;5044739;28;20298;-78
2022/05/07 10:23:38;;;;;;;;;;;21.60;49.40;;;;;;5045723;28;19925;-75
2022/05/07 10:26:05;;;;;;;;;;;21.20;51.20;;;;;;5045005;28;19994;-76
2022/05/07 10:28:39;;;;;;;;;;;21.20;52.20;;;;;;5049563;28;19968;-76
2022/05/07 10:31:16;;;;;;;;;;;21.70;52.00;;;;;;5050889;28;19924;-76
2022/05/07 10:33:44;;;;;;;;;;;21.60;51.30;;;;;;5046784;28;20307;-76
2022/05/07 10:36:11;;;;;;;;;;;21.70;51.10;;;;;;5057221;28;19982;-76
2022/05/07 10:38:39;;;;;;;;;;;22.10;51.80;;;;;;5050388;28;19947;-77
2022/05/07 10:41:07;;;;;;;;;;;22.50;50.10;;;;;;5050048;28;19925;-76
2022/05/07 10:43:34;;;;;;;;;;;22.60;48.50;;;;;;5056699;28;19925;-77
2022/05/07 10:46:02;;;;;;;;;;;22.40;49.70;;;;;;5047921;28;20401;-77
2022/05/07 10:48:28;;;;;;;;;;;22.70;49.50;;;;;;5048261;28;19929;-78
2022/05/07 10:51:00;;;;;;;;;;;22.50;49.20;;;;;;5046677;28;20010;-77
2022/05/07 10:53:36;;;;;;;;;;;22.10;48.80;;;;;;5054680;28;20370;-78
2022/05/07 10:56:03;;;;;;;;;;;21.40;49.90;;;;;;5049345;28;19924;-77
2022/05/07 10:58:29;;;;;;;;;;;21.40;49.30;;;;;;5051913;28;19931;-78
2022/05/07 11:00:58;;;;;;;;;;;20.90;51.30;;;;;;5058158;28;19974;-76
2022/05/07 11:03:28;;;;;;;;;;;21.30;50.00;;;;;;5048650;28;20045;-77
2022/05/07 11:06:02;;;;;;;;;;;21.40;48.80;;;;;;5041850;28;20028;-77
2022/05/07 11:08:31;;;;;;;;;;;21.00;50.00;;;;;;5048311;28;20155;-77
2022/05/07 11:11:05;;;;;;;;;;;21.10;50.10;;;;;;5055263;28;20403;-77
2022/05/07 11:13:32;;;;;;;;;;;21.50;49.60;;;;;;5050134;28;20126;-77
2022/05/07 11:16:05;;;;;;;;;;;21.60;49.20;;;;;;5048278;28;19939;-76
2022/05/07 11:18:33;;;;;;;;;;;21.90;48.20;;;;;;5042374;28;19936;-77
2022/05/07 11:21:04;;;;;;;;;;;21.90;48.60;;;;;;5047047;28;20045;-77
2022/05/07 11:23:36;;;;;;;;;;;22.00;48.20;;;;;;5052468;28;19928;-77
2022/05/07 11:26:09;;;;;;;;;;;22.10;47.20;;;;;;5051281;28;20264;-76
2022/05/07 11:28:36;;;;;;;;;;;22.10;47.00;;;;;;5049658;28;19989;-75
2022/05/07 11:31:03;;;;;;;;;;;22.30;45.90;;;;;;5057635;28;19937;-74
2022/05/07 11:33:29;;;;;;;;;;;22.40;45.90;;;;;;5054755;28;19974;-77
2022/05/07 11:36:00;;;;;;;;;;;22.70;44.80;;;;;;5047574;28;19935;-75
2022/05/07 11:38:28;;;;;;;;;;;22.60;44.30;;;;;;5045343;28;19929;-74
2022/05/07 11:40:55;;;;;;;;;;;22.60;44.90;;;;;;5048542;28;19940;-76
2022/05/07 11:46:07;;;;;;;;;;;22.60;43.60;;;;;;5046313;28;19935;-75
2022/05/07 11:48:33;;;;;;;;;;;22.40;44.90;;;;;;5048040;28;19924;-75
2022/05/07 11:51:00;;;;;;;;;;;22.30;43.00;;;;;;5048154;28;19960;-77
2022/05/07 11:53:29;;;;;;;;;;;22.00;43.00;;;;;;5048145;28;19926;-78
2022/05/07 11:56:05;;;;;;;;;;;22.10;42.10;;;;;;5051713;28;19928;-75
2022/05/07 11:58:42;;;;;;;;;;;22.30;41.20;;;;;;5059048;28;19941;-76
2022/05/07 12:01:17;;;;;;;;;;;22.40;43.30;;;;;;5051551;28;20106;-75
2022/05/07 12:03:44;;;;;;;;;;;22.40;45.40;;;;;;5064171;28;19936;-75
2022/05/07 12:06:12;;;;;;;;;;;21.90;45.10;;;;;;5052011;28;20323;-75
2022/05/07 12:08:40;;;;;;;;;;;21.50;45.70;;;;;;5050131;28;19986;-75
2022/05/07 12:11:07;;;;;;;;;;;21.40;45.80;;;;;;5069468;28;19929;-74
2022/05/07 12:13:35;;;;;;;;;;;21.50;45.90;;;;;;5069149;28;19931;-75
2022/05/07 12:18:48;;;;;;;;;;;21.60;47.60;;;;;;5055441;28;19931;-76
2022/05/07 12:21:16;;;;;;;;;;;21.30;48.20;;;;;;5053249;28;19932;-76
2022/05/07 12:31:58;;;;;;;;;;;20.70;47.30;;;;;;5068659;28;19932;-77
2022/05/07 12:34:24;;;;;;;;;;;21.10;47.10;;;;;;5052935;28;19925;-77
2022/05/07 12:36:51;;;;;;;;;;;21.90;43.70;;;;;;5054284;28;20015;-78
2022/05/07 12:39:20;;;;;;;;;;;22.50;42.70;;;;;;5060539;28;19924;-77
2022/05/07 12:41:46;;;;;;;;;;;23.00;40.40;;;;;;5057417;28;19925;-77
2022/05/07 12:44:13;;;;;;;;;;;22.50;43.30;;;;;;5059230;28;19932;-76
2022/05/07 12:46:40;;;;;;;;;;;21.50;46.00;;;;;;5054579;28;19925;-77
2022/05/07 12:49:08;;;;;;;;;;;21.30;46.90;;;;;;5073824;28;19978;-74
2022/05/07 12:51:36;;;;;;;;;;;21.30;46.00;;;;;;5062594;28;19924;-72
2022/05/07 12:54:03;;;;;;;;;;;20.90;46.00;;;;;;5058990;28;20411;-75
2022/05/07 12:56:32;;;;;;;;;;;21.10;46.50;;;;;;5057360;28;20146;-76
2022/05/07 12:58:58;;;;;;;;;;;21.40;45.80;;;;;;5063144;28;19952;-75
2022/05/07 13:01:25;;;;;;;;;;;21.40;44.80;;;;;;5054324;28;20408;-76
2022/05/07 13:03:52;;;;;;;;;;;21.30;43.90;;;;;;5058154;28;20459;-74
2022/05/07 13:06:18;;;;;;;;;;;21.20;45.20;;;;;;5053950;28;20384;-75
2022/05/07 13:08:45;;;;;;;;;;;21.00;45.70;;;;;;5054599;28;20015;-76
2022/05/07 13:11:12;;;;;;;;;;;20.70;46.60;;;;;;5055825;28;19951;-74
2022/05/07 13:13:40;;;;;;;;;;;20.00;48.00;;;;;;5057548;28;19984;-74
2022/05/07 13:16:07;;;;;;;;;;;20.30;48.30;;;;;;5054124;28;20010;-74
2022/05/07 13:18:35;;;;;;;;;;;20.70;47.20;;;;;;5068028;28;19931;-74
2022/05/07 13:21:01;;;;;;;;;;;20.90;45.60;;;;;;5075826;28;20255;-75
2022/05/07 13:23:28;;;;;;;;;;;20.60;45.80;;;;;;5064194;28;20291;-76
2022/05/07 13:25:55;;;;;;;;;;;20.80;45.20;;;;;;5052997;28;19935;-78
2022/05/07 13:28:21;;;;;;;;;;;21.00;45.80;;;;;;5058006;28;19925;-75
2022/05/07 13:30:50;;;;;;;;;;;21.00;46.70;;;;;;5055755;28;20028;-75
2022/05/07 13:33:16;;;;;;;;;;;21.00;46.90;;;;;;5051002;28;19925;-76
2022/05/07 13:35:43;;;;;;;;;;;20.50;47.80;;;;;;5055307;28;20471;-75
2022/05/07 13:38:10;;;;;;;;;;;20.70;48.40;;;;;;5052754;28;19994;-76
2022/05/07 13:40:37;;;;;;;;;;;21.10;47.60;;;;;;5049991;28;19924;-76
2022/05/07 13:43:04;;;;;;;;;;;21.30;46.70;;;;;;5062360;28;19928;-76
2022/05/07 13:45:31;;;;;;;;;;;20.80;46.80;;;;;;5061911;28;19948;-76
2022/05/07 13:47:59;;;;;;;;;;;20.70;47.10;;;;;;5064950;28;19925;-77
2022/05/07 13:50:26;;;;;;;;;;;20.70;46.60;;;;;;5053346;28;19924;-76
2022/05/07 13:52:53;;;;;;;;;;;20.70;46.10;;;;;;5066906;28;19935;-78
2022/05/07 13:55:19;;;;;;;;;;;20.50;45.90;;;;;;5051942;28;19924;-77
2022/05/07 13:57:46;;;;;;;;;;;20.10;47.00;;;;;;5059993;28;19925;-76
2022/05/07 14:00:16;;;;;;;;;;;20.00;46.90;;;;;;5054752;28;20007;-75
2022/05/07 14:02:44;;;;;;;;;;;20.20;46.60;;;;;;5061842;28;19929;-76
2022/05/07 14:05:12;;;;;;;;;;;20.40;45.90;;;;;;5060397;28;19931;-77
2022/05/07 14:07:39;;;;;;;;;;;20.60;46.20;;;;;;5057111;28;20011;-75
2022/05/07 14:10:06;;;;;;;;;;;20.80;45.60;;;;;;5068609;28;19974;-75
2022/05/07 14:12:33;;;;;;;;;;;20.80;45.10;;;;;;5057540;28;19933;-76
2022/05/07 14:15:00;;;;;;;;;;;20.90;45.40;;;;;;5052680;28;19929;-78
2022/05/07 14:17:27;;;;;;;;;;;20.70;44.40;;;;;;5059642;28;19979;-76
2022/05/07 14:19:54;;;;;;;;;;;20.50;46.30;;;;;;5055865;28;20352;-75
2022/05/07 14:22:22;;;;;;;;;;;20.00;47.00;;;;;;5050504;28;19963;-75
2022/05/07 14:24:50;;;;;;;;;;;19.70;47.10;;;;;;5052158;28;20407;-75
2022/05/07 14:27:16;;;;;;;;;;;19.80;47.70;;;;;;5066701;28;19924;-77
2022/05/07 14:29:43;;;;;;;;;;;19.60;48.20;;;;;;5056518;28;20011;-76
2022/05/07 14:32:10;;;;;;;;;;;19.40;48.00;;;;;;5059800;28;20011;-75
2022/05/07 14:34:37;;;;;;;;;;;19.50;48.80;;;;;;5068484;28;20415;-75
2022/05/07 14:37:04;;;;;;;;;;;19.80;48.00;;;;;;5067897;28;19925;-75
2022/05/07 14:39:33;;;;;;;;;;;20.00;46.70;;;;;;5058197;28;19925;-75
2022/05/07 14:41:59;;;;;;;;;;;20.30;46.20;;;;;;5059946;28;20552;-75
2022/05/07 14:44:26;;;;;;;;;;;19.80;46.60;;;;;;5051575;28;20387;-75
2022/05/07 14:46:53;;;;;;;;;;;20.00;46.00;;;;;;5054044;28;20455;-77
2022/05/07 14:49:21;;;;;;;;;;;20.10;45.10;;;;;;5052086;28;19971;-76
2022/05/07 14:51:48;;;;;;;;;;;20.60;44.50;;;;;;5049323;28;19925;-76
2022/05/07 14:54:14;;;;;;;;;;;21.10;43.40;;;;;;5044820;28;19931;-76
2022/05/07 14:56:42;;;;;;;;;;;21.20;45.50;;;;;;5053003;28;20414;-76
2022/05/07 14:59:10;;;;;;;;;;;21.10;45.80;;;;;;5048714;28;20019;-76
2022/05/07 15:01:40;;;;;;;;;;;20.70;45.90;;;;;;5049033;28;19924;-75
2022/05/07 15:04:07;;;;;;;;;;;20.90;46.40;;;;;;5061308;28;19994;-74